createdAt,value
2022-11-17T02:17:41.376Z,995.34
2022-11-17T02:46:07.636Z,995.26
2022-11-17T03:15:02.849Z,995.05
2022-11-17T03:43:40.402Z,994.88
2022-11-17T04:11:57.740Z,995.02
2022-11-17T04:40:39.897Z,995.32
2022-11-17T05:09:26.536Z,995.19
2022-11-17T05:37:58.343Z,995.17
2022-11-17T06:34:57.411Z,995.08
2022-11-17T07:03:22.217Z,995.67
2022-11-17T07:31:40.612Z,995.91
2022-11-17T08:00:01.323Z,996.36
2022-11-17T08:29:05.203Z,996.47
2022-11-17T09:00:26.601Z,996.95
2022-11-17T09:28:05.934Z,997.1
2022-11-17T09:56:12.777Z,997.29
2022-11-17T10:24:57.152Z,997.4
2022-11-17T10:53:48.834Z,997.46
2022-11-17T11:22:05.169Z,997.09
2022-11-17T11:50:42.705Z,996.97
2022-11-17T12:19:09.140Z,996.79
2022-11-17T12:47:38.563Z,996.72
2022-11-17T13:16:17.995Z,996.54
2022-11-17T13:44:36.351Z,996.34
2022-11-17T14:12:48.640Z,996.03
2022-11-17T14:41:19.187Z,996.09
2022-11-17T15:09:55.449Z,996.16
2022-11-17T15:38:19.409Z,996.32
2022-11-17T16:06:34.279Z,996.28
2022-11-17T16:34:51.513Z,996.02
2022-11-17T17:03:12.736Z,996.15
2022-11-17T17:31:39.050Z,996.79
2022-11-17T18:00:06.338Z,997.04
2022-11-17T18:28:46.736Z,997.79
2022-11-17T18:56:57.701Z,998.11
2022-11-17T19:25:36.737Z,997.96
2022-11-17T19:54:16.775Z,997.97
2022-11-17T20:23:06.326Z,998.45
2022-11-17T20:51:51.752Z,998.37
2022-11-17T21:20:23.222Z,998.33
2022-11-17T21:48:53.877Z,998.25
2022-11-17T22:17:32.804Z,998.11
2022-11-17T22:46:00.662Z,998.04
